Søk

IMG_2271

IMG_2270
 
METAR
2020/11/26 22:50 ENCN 262250Z AUTO 05006KT 9999 NCD M02/M02 Q1019
TAF
2020/11/26 17:45 TAF AMD TAF AMD ENCN 261742Z 2617/2620 VRB03KT 0200 FZFG VV001 TEMPO 2617/2620 4000 BCFG SCT002
LN-KFK
Operativ VFR-natt
VFR dag
07:53 - 16:37
Brannvakt
Inaktiv
Banner
Banner
Banner
Banner
Banner